Time;durP1;ratioP1;P1;durP2;ratioP2;P2;SDS_P1;SDS_P2;PMS_P1;PMS_P2;Temp;Humidity;BMP_temperature;BMP_pressure;BME280_temperature;BME280_humidity;BME280_pressure;Samples;Min_cycle;Max_cycle;Signal;HPM_P1;HPM_P2
2022/06/28 00:00:15;;;;;;;41.10;24.85;;;;;;;14.41;70.45;101493.03;680219;29;1209;-75
2022/06/28 00:00:36;;;;;;;39.90;24.83;;;;;;;14.39;70.52;101490.41;679906;29;1431;-74
2022/06/28 00:00:57;;;;;;;39.03;24.93;;;;;;;14.46;70.38;101491.41;681768;29;1059;-74
2022/06/28 00:01:17;;;;;;;39.33;24.17;;;;;;;14.50;70.27;101499.41;685073;28;1795;-75
2022/06/28 00:01:40;;;;;;;39.30;24.33;;;;;;;14.48;70.28;101487.09;682531;28;1376;-74
2022/06/28 00:02:01;;;;;;;39.33;24.65;;;;;;;14.50;70.32;101488.91;682750;29;1352;-75
2022/06/28 00:02:21;;;;;;;40.40;24.95;;;;;;;14.50;70.15;101488.03;682665;29;1354;-74
2022/06/28 00:02:42;;;;;;;40.95;24.67;;;;;;;14.48;70.10;101485.34;682853;28;2027;-75
2022/06/28 00:03:03;;;;;;;38.70;24.50;;;;;;;14.49;69.99;101480.97;677531;29;1184;-75
2022/06/28 00:03:23;;;;;;;37.33;24.58;;;;;;;14.49;70.22;101486.22;684917;28;1262;-74
2022/06/28 00:03:44;;;;;;;36.78;24.02;;;;;;;14.51;70.15;101482.78;687589;28;1318;-74
2022/06/28 00:04:05;;;;;;;38.92;24.30;;;;;;;14.49;70.01;101481.88;685304;28;1303;-74
2022/06/28 00:04:26;;;;;;;40.83;25.38;;;;;;;14.50;70.02;101478.41;677266;29;1774;-74
2022/06/28 00:04:47;;;;;;;41.35;26.20;;;;;;;14.58;70.07;101482.94;679767;29;1216;-74
2022/06/28 00:05:08;;;;;;;40.47;26.00;;;;;;;14.59;70.07;101482.09;682783;28;951;-75
2022/06/28 00:05:29;;;;;;;42.70;26.13;;;;;;;14.60;70.13;101491.72;682457;28;1333;-75
2022/06/28 00:05:50;;;;;;;40.30;25.73;;;;;;;14.65;69.88;101490.97;684372;28;1155;-75
2022/06/28 00:06:10;;;;;;;37.92;25.27;;;;;;;14.61;70.29;101488.25;684672;28;1227;-74
2022/06/28 00:06:31;;;;;;;35.93;24.97;;;;;;;14.55;70.35;101481.13;679434;29;1514;-74
2022/06/28 00:06:53;;;;;;;38.50;25.55;;;;;;;14.61;70.00;101493.50;683768;28;1244;-75
2022/06/28 00:07:14;;;;;;;44.28;26.40;;;;;;;14.60;69.92;101489.09;685375;28;1095;-75
2022/06/28 00:07:36;;;;;;;44.55;26.50;;;;;;;14.68;70.00;101491.91;683710;28;1382;-75
2022/06/28 00:07:57;;;;;;;44.83;26.40;;;;;;;14.51;70.28;101485.41;685180;28;1144;-75
2022/06/28 00:08:21;;;;;;;40.83;26.30;;;;;;;14.64;69.94;101488.34;685242;28;1108;-74
2022/06/28 00:08:47;;;;;;;41.97;25.85;;;;;;;14.64;70.20;101489.22;685610;28;1235;-74
2022/06/28 00:09:33;;;;;;;41.00;25.67;;;;;;;14.73;70.13;101496.41;685494;28;1054;-75
2022/06/28 00:09:53;;;;;;;43.47;26.70;;;;;;;14.61;70.12;101478.66;686809;28;1491;-75
2022/06/28 00:10:16;;;;;;;42.58;26.08;;;;;;;14.63;70.29;101483.94;685486;28;1002;-74
2022/06/28 00:10:37;;;;;;;44.60;26.90;;;;;;;14.66;70.00;101484.91;681508;29;1263;-74
2022/06/28 00:10:58;;;;;;;46.23;26.90;;;;;;;14.64;69.99;101475.19;679966;29;1011;-74
2022/06/28 00:11:19;;;;;;;46.70;27.08;;;;;;;14.69;70.09;101481.44;677456;29;1186;-74
2022/06/28 00:11:43;;;;;;;44.60;26.50;;;;;;;14.67;69.96;101472.63;679241;29;1381;-74
2022/06/28 00:12:04;;;;;;;43.30;27.42;;;;;;;14.74;69.85;101498.19;681740;29;1228;-75
2022/06/28 00:12:25;;;;;;;44.63;27.98;;;;;;;14.70;69.89;101484.97;682655;29;1296;-74
2022/06/28 00:12:46;;;;;;;44.72;27.92;;;;;;;14.72;69.96;101489.41;682344;28;1170;-74
2022/06/28 00:13:07;;;;;;;43.45;27.15;;;;;;;14.64;69.93;101488.34;682652;29;1068;-74
2022/06/28 00:13:28;;;;;;;41.63;26.52;;;;;;;14.59;69.99;101469.84;682691;29;2023;-74
2022/06/28 00:13:48;;;;;;;41.17;26.47;;;;;;;14.67;69.75;101485.75;685084;28;1233;-75
2022/06/28 00:16:15;;;;;;;44.38;25.60;;;;;;;14.66;69.68;101489.25;684931;28;2630;-75
2022/06/28 00:16:35;;;;;;;41.15;24.40;;;;;;;14.69;69.73;101481.44;684535;28;2459;-74
2022/06/28 00:16:57;;;;;;;38.17;23.63;;;;;;;14.68;69.51;101490.16;681886;28;1499;-74
2022/06/28 00:17:17;;;;;;;35.75;23.70;;;;;;;14.66;69.59;101479.66;682555;29;1294;-74
2022/06/28 00:17:38;;;;;;;37.17;24.25;;;;;;;14.63;69.60;101483.94;681146;28;2192;-76
2022/06/28 00:18:06;;;;;;;38.35;24.40;;;;;;;14.63;69.38;101476.06;684862;28;1271;-74
2022/06/28 00:18:26;;;;;;;38.95;24.23;;;;;;;14.61;69.28;101480.38;679339;29;1537;-75
2022/06/28 00:18:54;;;;;;;38.65;24.10;;;;;;;14.60;69.32;101491.72;679750;29;1247;-74
2022/06/28 00:19:16;;;;;;;36.97;23.90;;;;;;;14.59;69.35;101476.81;682328;28;1347;-74
2022/06/28 00:19:37;;;;;;;35.95;24.02;;;;;;;14.63;69.39;101484.81;682222;29;1210;-74
2022/06/28 00:19:58;;;;;;;37.97;24.20;;;;;;;14.63;69.44;101484.81;682176;29;1162;-74
2022/06/28 00:20:19;;;;;;;39.03;24.60;;;;;;;14.65;69.52;101487.47;684308;28;1188;-74
2022/06/28 00:20:40;;;;;;;38.90;24.50;;;;;;;14.65;69.67;101487.47;682207;28;1529;-74
2022/06/28 00:21:01;;;;;;;37.33;24.25;;;;;;;14.63;69.61;101476.06;682554;29;1535;-74
2022/06/28 00:21:24;;;;;;;36.28;23.88;;;;;;;14.70;69.67;101485.84;681767;28;1632;-74
2022/06/28 00:21:47;;;;;;;39.83;24.90;;;;;;;14.70;69.75;101490.22;681807;28;1558;-74
2022/06/28 00:22:07;;;;;;;42.05;25.23;;;;;;;14.74;69.67;101492.06;684876;28;1339;-74
2022/06/28 00:22:29;;;;;;;40.33;25.08;;;;;;;14.68;69.72;101482.28;685004;28;1902;-74
2022/06/28 00:22:50;;;;;;;42.80;25.20;;;;;;;14.68;69.53;101482.28;684728;28;1127;-74
2022/06/28 00:23:10;;;;;;;43.08;26.02;;;;;;;14.70;69.64;101485.84;685260;28;1162;-74
2022/06/28 00:23:31;;;;;;;45.43;26.90;;;;;;;14.65;69.40;101477.84;682481;28;1365;-75
2022/06/28 00:23:52;;;;;;;43.55;26.83;;;;;;;14.71;69.61;101486.72;681786;29;1514;-74
2022/06/28 00:24:13;;;;;;;41.83;26.40;;;;;;;14.68;69.49;101476.16;684856;28;1495;-74
2022/06/28 00:24:34;;;;;;;40.92;26.02;;;;;;;14.73;69.62;101501.69;682834;28;1339;-75
2022/06/28 00:24:54;;;;;;;40.85;25.95;;;;;;;14.66;69.54;101478.75;684604;28;1107;-75
2022/06/28 00:25:15;;;;;;;41.38;25.73;;;;;;;14.69;69.64;101485.81;676899;29;1166;-75
2022/06/28 00:25:36;;;;;;;42.17;25.42;;;;;;;14.72;69.78;101489.41;677224;29;2129;-74
2022/06/28 00:25:57;;;;;;;41.40;25.50;;;;;;;14.72;69.84;101493.75;682335;29;1216;-74
2022/06/28 00:26:18;;;;;;;39.00;24.98;;;;;;;14.69;69.67;101483.19;680073;29;961;-74
2022/06/28 00:26:39;;;;;;;40.42;25.77;;;;;;;14.69;69.67;101489.31;679623;29;2136;-74
2022/06/28 00:26:59;;;;;;;40.63;26.08;;;;;;;14.77;69.79;101498.25;684106;28;1887;-75
2022/06/28 00:27:22;;;;;;;42.40;26.38;;;;;;;14.68;69.74;101481.41;680741;29;1140;-74
2022/06/28 00:27:43;;;;;;;42.15;26.10;;;;;;;14.67;69.82;101475.25;679937;29;1587;-74
2022/06/28 00:28:05;;;;;;;42.35;26.15;;;;;;;14.68;70.01;101477.03;679097;29;1192;-75
2022/06/28 00:28:26;;;;;;;42.30;26.58;;;;;;;14.71;69.84;101481.47;679736;29;1495;-74
2022/06/28 00:28:47;;;;;;;42.97;26.73;;;;;;;14.71;69.75;101481.47;682654;28;1689;-74
2022/06/28 00:29:08;;;;;;;43.42;26.67;;;;;;;14.74;69.85;101490.31;682675;29;955;-75
2022/06/28 00:29:29;;;;;;;42.60;26.60;;;;;;;14.70;69.63;101482.31;682407;28;1553;-74
2022/06/28 00:29:50;;;;;;;42.20;26.38;;;;;;;14.73;69.45;101485.00;683764;28;1263;-74
2022/06/28 00:30:12;;;;;;;42.70;26.58;;;;;;;14.73;69.69;101491.16;677260;29;1203;-74
2022/06/28 00:30:32;;;;;;;42.28;26.58;;;;;;;14.70;69.69;101491.13;685018;28;1627;-75
2022/06/28 00:30:53;;;;;;;42.38;26.67;;;;;;;14.66;69.59;101484.91;687459;28;1116;-75
2022/06/28 00:31:14;;;;;;;39.72;26.40;;;;;;;14.68;69.56;101487.53;685275;28;1139;-74
2022/06/28 00:31:36;;;;;;;40.25;26.13;;;;;;;14.63;69.57;101483.94;682481;28;1452;-74
2022/06/28 00:31:57;;;;;;;40.75;25.98;;;;;;;14.64;69.75;101485.72;686665;28;1242;-74
2022/06/28 00:32:18;;;;;;;42.13;25.30;;;;;;;14.65;69.55;101492.75;682591;29;1003;-75
2022/06/28 00:32:39;;;;;;;43.33;25.40;;;;;;;14.65;69.54;101490.97;684890;28;2163;-74
2022/06/28 00:32:59;;;;;;;41.78;25.08;;;;;;;14.64;69.59;101501.47;687995;28;1384;-74
2022/06/28 00:33:20;;;;;;;41.00;24.85;;;;;;;14.64;69.51;101491.84;685299;28;1227;-74
2022/06/28 00:33:41;;;;;;;39.50;24.10;;;;;;;14.63;69.64;101497.94;679673;29;1629;-74
2022/06/28 00:34:04;;;;;;;40.13;24.83;;;;;;;14.55;69.59;101482.88;682661;28;1069;-74
2022/06/28 00:34:24;;;;;;;40.17;25.73;;;;;;;14.59;69.54;101489.97;682801;29;1125;-74
2022/06/28 00:34:47;;;;;;;40.70;25.90;;;;;;;14.62;69.74;101484.81;682153;29;1436;-74
2022/06/28 00:35:08;;;;;;;41.38;25.80;;;;;;;14.65;69.81;101498.00;682004;29;856;-74
2022/06/28 00:35:29;;;;;;;41.40;26.15;;;;;;;14.62;69.69;101487.44;682432;28;1874;-75
2022/06/28 00:35:49;;;;;;;41.72;26.88;;;;;;;14.64;69.99;101502.34;686358;28;1033;-74
2022/06/28 00:36:10;;;;;;;42.65;26.92;;;;;;;14.64;69.83;101488.34;682951;28;1488;-74
2022/06/28 00:36:31;;;;;;;41.90;26.57;;;;;;;14.64;69.86;101496.22;682224;29;1909;-75
2022/06/28 00:36:51;;;;;;;40.80;25.90;;;;;;;14.60;70.05;101478.59;679758;29;1138;-74
2022/06/28 00:37:12;;;;;;;38.92;25.95;;;;;;;14.68;69.77;101491.91;679813;29;1761;-74
2022/06/28 00:37:33;;;;;;;39.15;25.52;;;;;;;14.64;69.79;101490.97;682410;28;1264;-74
2022/06/28 00:37:55;;;;;;;39.35;25.70;;;;;;;14.66;69.58;101492.78;682585;29;1597;-74
2022/06/28 00:38:16;;;;;;;40.60;25.83;;;;;;;14.64;69.66;101490.97;685338;28;993;-76
2022/06/28 00:38:37;;;;;;;41.75;25.73;;;;;;;14.59;69.72;101489.97;685099;28;1191;-74
2022/06/28 00:38:58;;;;;;;41.78;24.98;;;;;;;14.61;69.68;101490.88;690601;28;996;-74
2022/06/28 00:39:19;;;;;;;40.25;24.85;;;;;;;14.68;69.60;101507.69;685071;28;1150;-75
2022/06/28 00:39:40;;;;;;;42.10;25.60;;;;;;;14.62;69.68;101503.19;680964;28;1492;-74
2022/06/28 00:40:01;;;;;;;44.13;26.67;;;;;;;14.58;69.64;101490.81;682281;29;1292;-74
2022/06/28 00:40:23;;;;;;;43.30;26.30;;;;;;;14.58;69.42;101496.06;677547;29;1249;-74
2022/06/28 00:40:49;;;;;;;42.47;26.50;;;;;;;14.55;69.65;101488.13;680450;29;1810;-74
2022/06/28 00:41:12;;;;;;;40.63;26.15;;;;;;;14.51;69.49;101490.66;684904;28;1030;-74
2022/06/28 00:41:34;;;;;;;39.63;26.10;;;;;;;14.50;69.68;101493.28;681441;29;1779;-74
2022/06/28 00:41:55;;;;;;;38.40;25.42;;;;;;;14.56;69.59;101500.41;681610;29;1429;-74
2022/06/28 00:42:16;;;;;;;40.63;26.30;;;;;;;14.49;69.74;101489.75;682736;29;982;-75
2022/06/28 00:42:38;;;;;;;41.42;26.67;;;;;;;14.56;69.68;101503.03;686526;28;1273;-75
2022/06/28 00:42:59;;;;;;;41.72;26.88;;;;;;;14.53;69.37;101499.47;687793;28;1322;-74
2022/06/28 00:43:22;;;;;;;39.97;25.83;;;;;;;14.52;69.49;101492.44;682646;29;1444;-74
2022/06/28 00:43:43;;;;;;;41.42;25.65;;;;;;;14.50;69.54;101496.78;680000;29;1049;-74
2022/06/28 00:44:04;;;;;;;41.15;24.58;;;;;;;14.55;69.62;101504.75;682532;29;982;-75
2022/06/28 00:44:25;;;;;;;40.83;24.63;;;;;;;14.50;69.43;101499.41;680132;29;844;-75
2022/06/28 00:44:46;;;;;;;38.55;24.92;;;;;;;14.43;69.62;101486.09;678290;29;1235;-74
2022/06/28 00:45:07;;;;;;;37.63;25.27;;;;;;;14.45;69.50;101495.78;680190;29;1221;-74
2022/06/28 00:45:28;;;;;;;38.35;25.50;;;;;;;14.46;69.37;101494.03;679894;29;1645;-74
2022/06/28 00:45:51;;;;;;;38.50;24.95;;;;;;;14.41;69.50;101493.94;681534;29;1212;-75
2022/06/28 00:46:12;;;;;;;40.08;24.52;;;;;;;14.39;69.58;101495.66;680631;29;1543;-74
2022/06/28 00:46:33;;;;;;;40.17;24.27;;;;;;;14.39;69.41;101490.41;684112;28;1336;-75
2022/06/28 00:46:55;;;;;;;39.90;24.05;;;;;;;14.37;69.53;101487.72;684656;28;1065;-74
2022/06/28 00:47:16;;;;;;;37.58;23.55;;;;;;;14.38;69.35;101493.88;682321;29;2199;-74
2022/06/28 00:47:37;;;;;;;35.03;23.15;;;;;;;14.36;69.60;101491.22;679946;29;1122;-74
2022/06/28 00:47:58;;;;;;;32.90;22.90;;;;;;;14.33;69.40;101485.00;682599;29;1331;-75
2022/06/28 00:48:19;;;;;;;34.88;23.48;;;;;;;14.35;69.49;101489.44;678305;29;1109;-75
2022/06/28 00:48:40;;;;;;;36.80;23.15;;;;;;;14.36;69.42;101500.81;679618;29;1626;-74
2022/06/28 00:49:02;;;;;;;35.90;22.80;;;;;;;14.37;69.65;101497.31;685279;28;1207;-74
2022/06/28 00:49:24;;;;;;;33.35;22.80;;;;;;;14.31;69.56;101491.97;682780;29;1202;-74
2022/06/28 00:49:45;;;;;;;34.45;23.25;;;;;;;14.30;69.59;101491.06;682621;28;1491;-74
2022/06/28 00:50:06;;;;;;;37.38;23.60;;;;;;;14.32;69.64;101488.47;679791;29;1407;-74
2022/06/28 00:50:28;;;;;;;38.25;23.20;;;;;;;14.31;69.40;101494.59;682457;29;1333;-74
2022/06/28 00:50:49;;;;;;;36.83;23.00;;;;;;;14.31;69.39;101495.44;682097;29;1265;-74
2022/06/28 00:51:10;;;;;;;35.15;22.63;;;;;;;14.29;69.42;101493.63;679733;29;1657;-75
2022/06/28 00:51:31;;;;;;;36.67;23.45;;;;;;;14.30;69.44;101498.03;679659;29;1522;-74
2022/06/28 00:51:52;;;;;;;35.88;23.20;;;;;;;14.29;69.46;101499.78;684662;28;1641;-75
2022/06/28 00:52:13;;;;;;;37.85;23.75;;;;;;;14.27;69.45;101495.34;679995;29;1422;-74
2022/06/28 00:52:35;;;;;;;36.38;24.08;;;;;;;14.27;69.75;101495.34;679714;29;1526;-74
2022/06/28 00:53:16;;;;;;;36.08;24.00;;;;;;;14.20;69.76;101487.31;682582;29;1274;-74
2022/06/28 00:53:37;;;;;;;34.38;23.17;;;;;;;14.23;69.65;101490.03;678486;29;1305;-74
2022/06/28 00:53:59;;;;;;;35.60;23.77;;;;;;;14.18;69.48;101494.28;682205;29;1256;-74
2022/06/28 00:54:19;;;;;;;35.35;24.02;;;;;;;14.27;69.58;101505.84;682472;29;1447;-74
2022/06/28 00:54:40;;;;;;;35.63;23.55;;;;;;;14.18;69.34;101496.00;681853;29;1510;-74
2022/06/28 00:55:01;;;;;;;34.78;23.17;;;;;;;14.22;69.41;101500.47;682561;29;1140;-75
2022/06/28 00:55:22;;;;;;;33.13;22.67;;;;;;;14.18;69.64;101499.53;681794;29;1238;-75
2022/06/28 00:55:44;;;;;;;32.83;22.50;;;;;;;14.16;69.45;101493.34;684433;28;1262;-74
2022/06/28 00:56:05;;;;;;;33.13;22.30;;;;;;;14.19;69.57;101498.66;682514;28;1154;-74
2022/06/28 00:56:26;;;;;;;33.67;22.25;;;;;;;14.17;69.48;101505.63;680754;29;1982;-74
2022/06/28 00:56:46;;;;;;;35.17;22.47;;;;;;;14.18;69.69;101504.78;679275;29;2209;-74
2022/06/28 00:57:07;;;;;;;36.03;23.05;;;;;;;14.16;69.53;101498.59;682526;29;1065;-75
2022/06/28 00:57:28;;;;;;;35.00;23.13;;;;;;;14.20;69.74;101495.19;680101;29;917;-74
2022/06/28 00:57:49;;;;;;;34.92;23.17;;;;;;;14.18;69.66;101501.25;686272;28;1230;-74
2022/06/28 00:58:10;;;;;;;34.47;23.55;;;;;;;14.21;69.71;101501.34;686156;28;1029;-74
2022/06/28 00:58:32;;;;;;;35.78;23.80;;;;;;;14.19;69.75;101503.03;682888;28;1773;-74
2022/06/28 00:58:55;;;;;;;35.55;24.17;;;;;;;14.20;69.72;101494.31;682332;29;1257;-75
2022/06/28 00:59:16;;;;;;;37.03;23.98;;;;;;;14.26;69.61;101510.22;681295;29;1400;-75
2022/06/28 00:59:36;;;;;;;37.70;23.77;;;;;;;14.21;69.86;101501.34;681954;29;2162;-74
2022/06/28 00:59:58;;;;;;;37.72;23.67;;;;;;;14.21;69.61;101502.22;682461;29;1061;-74
2022/06/28 01:00:19;;;;;;;37.55;23.95;;;;;;;14.18;69.46;101496.00;682510;29;1125;-74
2022/06/28 01:00:49;;;;;;;38.80;24.95;;;;;;;14.29;69.60;101514.63;683848;28;1362;-74
2022/06/28 01:01:10;;;;;;;41.70;25.33;;;;;;;14.22;69.96;101508.34;684192;28;1406;-74
2022/06/28 01:01:31;;;;;;;42.85;25.30;;;;;;;14.20;69.53;101504.81;682101;29;1484;-74
2022/06/28 01:01:55;;;;;;;41.55;24.65;;;;;;;14.20;69.43;101499.56;678852;29;1572;-74
2022/06/28 01:02:16;;;;;;;40.45;24.65;;;;;;;14.22;69.60;101509.25;679728;29;1309;-74
2022/06/28 01:02:37;;;;;;;38.73;24.20;;;;;;;14.19;69.75;101498.66;680940;29;1407;-74
2022/06/28 01:03:07;;;;;;;36.93;24.00;;;;;;;14.20;69.49;101502.19;679462;29;1114;-74
2022/06/28 01:03:28;;;;;;;37.90;24.17;;;;;;;14.15;69.50;101499.47;683638;28;1496;-74
2022/06/28 01:03:49;;;;;;;38.97;24.17;;;;;;;14.14;69.77;101494.16;684907;28;1502;-74
2022/06/28 01:04:10;;;;;;;41.88;24.17;;;;;;;14.13;69.51;101493.25;682647;29;1157;-74
2022/06/28 01:04:31;;;;;;;39.45;23.77;;;;;;;14.12;69.48;101496.75;684473;28;1883;-74
2022/06/28 01:04:52;;;;;;;38.78;23.30;;;;;;;14.11;69.49;101500.22;682463;29;1279;-75
2022/06/28 01:05:13;;;;;;;39.03;23.90;;;;;;;14.15;69.63;101512.56;679585;29;1003;-75
2022/06/28 01:05:36;;;;;;;40.70;24.60;;;;;;;14.10;69.54;101495.78;682019;29;1435;-74
2022/06/28 01:05:57;;;;;;;42.42;25.30;;;;;;;14.10;69.57;101496.69;682385;28;1086;-75
2022/06/28 01:06:21;;;;;;;40.28;25.25;;;;;;;14.10;69.67;101499.31;682620;29;1169;-74
2022/06/28 01:06:42;;;;;;;41.35;25.67;;;;;;;14.11;69.63;101501.13;676036;29;2118;-75
2022/06/28 01:07:05;;;;;;;39.47;25.20;;;;;;;14.08;69.47;101510.63;679512;29;1238;-74
2022/06/28 01:07:26;;;;;;;40.58;25.50;;;;;;;14.10;69.71;101508.91;685420;28;795;-74
2022/06/28 01:07:47;;;;;;;38.25;24.77;;;;;;;14.10;69.53;101511.53;680679;29;1243;-74
2022/06/28 01:08:08;;;;;;;36.17;24.73;;;;;;;14.08;69.45;101508.84;682537;29;1666;-75
2022/06/28 01:08:29;;;;;;;34.58;24.40;;;;;;;14.08;69.61;101515.88;681718;29;1854;-74
2022/06/28 01:08:53;;;;;;;35.97;24.52;;;;;;;14.10;69.52;101517.69;684201;28;1163;-74
2022/06/28 01:09:18;;;;;;;38.25;24.75;;;;;;;14.03;69.54;101501.72;685185;28;999;-74
2022/06/28 01:09:39;;;;;;;40.00;25.27;;;;;;;14.10;69.36;101520.31;684507;28;1492;-74
2022/06/28 01:10:00;;;;;;;39.88;25.23;;;;;;;14.05;69.56;101505.25;684429;28;1280;-75
2022/06/28 01:10:25;;;;;;;38.25;24.90;;;;;;;14.01;69.73;101511.31;682646;28;1276;-74
2022/06/28 01:10:46;;;;;;;34.85;24.10;;;;;;;14.04;69.43;101514.91;680253;29;1688;-75
2022/06/28 01:11:21;;;;;;;36.03;24.27;;;;;;;14.01;69.58;101516.56;677736;29;1653;-75
2022/06/28 01:11:44;;;;;;;37.80;24.33;;;;;;;14.09;69.64;101522.88;683194;28;907;-74
2022/06/28 01:12:06;;;;;;;37.83;24.30;;;;;;;14.02;69.66;101515.69;687479;28;1808;-75
2022/06/28 01:12:28;;;;;;;39.75;24.73;;;;;;;13.98;69.69;101505.13;677385;29;1164;-74
2022/06/28 01:12:49;;;;;;;40.22;25.42;;;;;;;14.01;70.06;101520.03;683723;28;1162;-75
2022/06/28 01:13:11;;;;;;;39.70;25.80;;;;;;;13.98;69.64;101510.38;682357;29;1078;-74
2022/06/28 01:13:34;;;;;;;40.35;25.80;;;;;;;14.01;69.77;101519.19;681549;29;1880;-75
2022/06/28 01:13:59;;;;;;;39.67;25.40;;;;;;;14.00;69.57;101513.03;682415;29;1228;-75
2022/06/28 01:14:24;;;;;;;36.80;24.52;;;;;;;13.97;69.80;101513.81;679691;29;2003;-74
2022/06/28 01:14:57;;;;;;;37.47;24.73;;;;;;;14.07;69.50;101532.47;678589;29;1523;-74
2022/06/28 01:15:33;;;;;;;37.38;24.80;;;;;;;13.98;69.59;101512.09;682963;28;1728;-74
2022/06/28 01:15:58;;;;;;;34.88;23.65;;;;;;;13.97;69.61;101515.59;679668;29;1186;-74
2022/06/28 01:16:21;;;;;;;33.03;23.27;;;;;;;13.96;69.91;101519.94;679894;29;1097;-75
2022/06/28 01:16:45;;;;;;;31.73;23.23;;;;;;;14.04;69.86;101530.66;678603;29;1911;-74
2022/06/28 01:17:10;;;;;;;32.95;23.80;;;;;;;14.00;69.85;101517.41;679971;29;1553;-75
2022/06/28 01:17:43;;;;;;;37.78;24.50;;;;;;;14.00;69.81;101525.28;682643;28;1414;-74
2022/06/28 01:18:39;;;;;;;40.78;25.70;;;;;;;13.97;69.78;101524.31;674870;29;1382;-74
2022/06/28 01:19:19;;;;;;;43.05;26.05;;;;;;;14.00;69.75;101531.41;685110;28;1232;-75
2022/06/28 01:19:45;;;;;;;41.72;25.67;;;;;;;13.97;69.77;101515.59;687206;28;1472;-75
2022/06/28 01:20:20;;;;;;;38.85;25.45;;;;;;;14.00;69.61;101528.78;682308;29;1280;-74
2022/06/28 01:20:57;;;;;;;40.17;25.23;;;;;;;13.98;69.61;101526.13;680611;28;1581;-74
2022/06/28 01:21:30;;;;;;;40.80;25.42;;;;;;;14.02;69.75;101536.69;679924;29;829;-74
2022/06/28 01:21:52;;;;;;;40.22;25.08;;;;;;;14.01;69.71;101534.91;684069;28;1069;-74
2022/06/28 01:22:21;;;;;;;36.47;23.92;;;;;;;14.01;69.67;101534.91;681307;29;1472;-75
2022/06/28 01:22:43;;;;;;;36.50;23.88;;;;;;;14.02;69.69;101542.81;681994;29;1558;-74
2022/06/28 01:23:07;;;;;;;37.65;24.70;;;;;;;14.00;69.62;101535.78;679868;29;1106;-75
2022/06/28 01:23:28;;;;;;;39.38;24.75;;;;;;;13.90;69.52;101517.13;679730;29;1641;-75
2022/06/28 01:24:07;;;;;;;40.80;25.65;;;;;;;13.89;69.79;101518.00;683619;28;1440;-75
2022/06/28 01:24:37;;;;;;;42.05;25.33;;;;;;;14.01;69.81;101537.53;684189;28;844;-74
2022/06/28 01:25:03;;;;;;;40.08;24.92;;;;;;;13.92;69.70;101528.59;681585;29;1904;-74
2022/06/28 01:25:24;;;;;;;38.80;24.60;;;;;;;13.93;69.65;101530.34;677729;29;1256;-75
2022/06/28 01:26:19;;;;;;;37.38;24.63;;;;;;;14.04;69.69;101540.25;679695;29;1093;-74
2022/06/28 01:26:45;;;;;;;36.50;25.45;;;;;;;14.00;69.86;101541.03;683308;28;1737;-75
2022/06/28 01:27:06;;;;;;;39.33;26.45;;;;;;;13.93;69.87;101527.72;679781;29;1291;-75
2022/06/28 01:27:27;;;;;;;40.72;26.98;;;;;;;13.94;69.71;101526.88;679896;29;1886;-74
2022/06/28 01:27:49;;;;;;;39.42;26.15;;;;;;;13.92;69.53;101531.22;683728;28;1081;-75
2022/06/28 01:28:11;;;;;;;38.10;25.83;;;;;;;13.95;69.74;101536.53;678798;29;1337;-74
2022/06/28 01:28:33;;;;;;;38.28;24.58;;;;;;;13.92;70.04;101530.31;682374;29;1834;-75
2022/06/28 01:29:06;;;;;;;39.10;24.33;;;;;;;13.84;69.60;101517.00;682938;28;1181;-75
2022/06/28 01:29:32;;;;;;;38.03;24.80;;;;;;;13.90;69.78;101532.00;681926;29;1391;-74
2022/06/28 01:30:14;;;;;;;39.63;24.70;;;;;;;13.85;69.70;101526.66;679793;29;1355;-74
2022/06/28 01:30:47;;;;;;;40.67;24.98;;;;;;;13.84;69.51;101527.50;684190;28;1094;-74
2022/06/28 01:31:18;;;;;;;41.42;25.20;;;;;;;13.83;69.88;101523.97;683024;28;1021;-74
2022/06/28 01:31:40;;;;;;;41.53;25.38;;;;;;;13.88;69.81;101533.72;684505;28;1526;-74
2022/06/28 01:32:01;;;;;;;40.90;25.55;;;;;;;13.90;69.63;101537.25;684985;28;1830;-74
2022/06/28 01:32:24;;;;;;;40.38;25.30;;;;;;;13.89;69.55;101536.34;687932;28;906;-74
2022/06/28 01:32:46;;;;;;;39.25;24.40;;;;;;;13.83;69.81;101525.72;685390;28;1406;-75
2022/06/28 01:33:08;;;;;;;38.20;24.40;;;;;;;13.82;69.73;101529.16;682030;29;1724;-75
2022/06/28 01:33:29;;;;;;;35.15;24.15;;;;;;;13.87;69.67;101535.44;682580;28;895;-74
2022/06/28 01:33:52;;;;;;;33.38;23.67;;;;;;;13.80;69.52;101529.16;676532;29;1684;-74
2022/06/28 01:34:15;;;;;;;35.83;24.20;;;;;;;13.84;69.33;101527.50;682300;28;1260;-75
2022/06/28 01:34:37;;;;;;;37.67;24.85;;;;;;;13.87;69.74;101542.44;682964;28;850;-74
2022/06/28 01:35:00;;;;;;;38.72;25.35;;;;;;;13.80;69.85;101536.13;684422;28;1666;-75
2022/06/28 01:35:22;;;;;;;37.67;24.90;;;;;;;13.80;69.80;101526.53;679820;29;1384;-74
2022/06/28 01:35:43;;;;;;;39.30;25.10;;;;;;;13.82;69.61;101535.31;677491;29;1567;-74
2022/06/28 01:36:05;;;;;;;37.53;24.80;;;;;;;13.90;69.57;101545.13;685136;28;1116;-75
2022/06/28 01:36:27;;;;;;;35.78;24.83;;;;;;;13.88;69.87;101545.09;685075;28;828;-75
2022/06/28 01:36:48;;;;;;;35.07;24.60;;;;;;;13.83;69.67;101541.47;683753;28;1753;-74
2022/06/28 01:37:10;;;;;;;36.40;24.52;;;;;;;13.78;69.57;101536.06;681792;29;2179;-74
2022/06/28 01:37:43;;;;;;;36.30;24.10;;;;;;;13.80;69.46;101536.13;682430;29;788;-76
2022/06/28 01:38:06;;;;;;;37.22;24.50;;;;;;;13.82;69.75;101542.28;681938;29;1370;-75
2022/06/28 01:38:27;;;;;;;36.33;24.00;;;;;;;13.80;69.65;101539.66;682436;29;793;-74
2022/06/28 01:38:48;;;;;;;35.10;23.52;;;;;;;13.78;69.70;101543.94;684541;28;1107;-75
2022/06/28 01:39:10;;;;;;;35.88;24.00;;;;;;;13.79;69.76;101540.50;685081;28;1309;-75
2022/06/28 01:39:31;;;;;;;36.83;24.30;;;;;;;13.76;69.58;101529.03;684396;28;1194;-75
2022/06/28 01:39:52;;;;;;;38.65;25.00;;;;;;;13.78;69.69;101543.06;684637;28;1457;-74
2022/06/28 01:40:13;;;;;;;38.05;24.38;;;;;;;13.77;69.81;101538.66;682321;29;1545;-75
2022/06/28 01:40:34;;;;;;;38.72;24.38;;;;;;;13.79;69.61;101544.84;682454;29;1872;-75
2022/06/28 01:40:54;;;;;;;37.33;23.95;;;;;;;13.82;69.75;101550.16;676451;29;1335;-75
2022/06/28 01:41:34;;;;;;;38.30;24.50;;;;;;;13.74;69.74;101535.94;679829;29;978;-75
2022/06/28 01:42:08;;;;;;;37.20;24.52;;;;;;;13.76;69.77;101550.00;679658;29;1777;-74
2022/06/28 01:42:34;;;;;;;42.67;25.27;;;;;;;13.76;69.69;101543.00;677399;29;817;-75
2022/06/28 01:42:55;;;;;;;43.60;25.50;;;;;;;13.68;69.95;101532.31;679036;29;1271;-74
2022/06/28 01:43:17;;;;;;;38.83;24.83;;;;;;;13.74;70.14;101544.72;679784;29;777;-74
2022/06/28 01:43:47;;;;;;;39.20;25.35;;;;;;;13.68;69.82;101534.06;681985;29;1369;-74
2022/06/28 01:44:09;;;;;;;40.22;25.40;;;;;;;13.71;69.65;101537.66;682404;29;1151;-74
2022/06/28 01:44:36;;;;;;;39.25;25.02;;;;;;;13.74;69.65;101541.19;682242;29;1365;-74
2022/06/28 01:45:16;;;;;;;40.25;24.85;;;;;;;13.72;69.80;101533.31;682478;29;1132;-74
2022/06/28 01:45:38;;;;;;;39.72;24.52;;;;;;;13.79;69.96;101550.09;685138;28;1271;-75
2022/06/28 01:46:02;;;;;;;40.03;24.35;;;;;;;13.78;69.90;101550.94;684894;28;1148;-75
2022/06/28 01:46:25;;;;;;;38.85;24.20;;;;;;;13.75;69.68;101537.75;682458;29;1211;-74
2022/06/28 01:46:53;;;;;;;37.50;24.45;;;;;;;13.74;69.88;101539.47;679494;29;1346;-75
2022/06/28 01:47:20;;;;;;;37.60;24.52;;;;;;;13.80;69.71;101546.63;684497;28;1112;-75
2022/06/28 01:48:18;;;;;;;39.47;24.33;;;;;;;13.75;69.61;101537.75;679502;29;1269;-75
2022/06/28 01:49:08;;;;;;;36.75;24.50;;;;;;;13.75;69.55;101537.75;671683;29;1016;-75
2022/06/28 01:49:31;;;;;;;38.97;25.40;;;;;;;13.77;69.44;101562.28;674396;29;1465;-74
2022/06/28 01:49:54;;;;;;;38.80;25.40;;;;;;;13.69;69.47;101536.72;675841;29;1233;-75
2022/06/28 01:50:16;;;;;;;37.53;24.80;;;;;;;13.70;69.61;101543.75;671914;29;1104;-74
2022/06/28 01:50:40;;;;;;;37.25;24.30;;;;;;;13.75;69.53;101541.25;671872;29;1059;-74
2022/06/28 01:51:02;;;;;;;37.35;24.60;;;;;;;13.74;69.76;101549.97;680345;28;1289;-75